Terminal Aerodrome Forecast
Issued by NWS

Home | Current Version | Previous Version | Text Only | Print | Product List | Glossary On
Versions: 1 2 3 4 5 6 7 8 9 10 11 12 13 14 15 16
000
FTUS45 KPSR 120500 AAA
TAFIPL
TAF AMD
KIPL 120525Z 1205/1306 26012G22KT P6SM BKN250
     FM120700 27007KT P6SM BKN250
     FM122100 19007KT P6SM BKN250
     FM130300 24008KT P6SM FEW120 BKN250=

USA.gov is the U.S. government's official web portal to all federal, state and local government web resources and services.